createdAt,value
2018-09-14T00:02:05.005Z,101089.80
2018-09-14T00:04:34.505Z,101083.69
2018-09-14T00:07:02.985Z,101091.15
2018-09-14T00:09:31.425Z,101082.80
2018-09-14T00:12:00.168Z,101084.11
2018-09-14T00:14:28.629Z,101083.31
2018-09-14T00:16:57.417Z,101071.91
2018-09-14T00:19:26.220Z,101075.42
2018-09-14T00:21:54.778Z,101068.01
2018-09-14T00:24:23.227Z,101068.86
2018-09-14T00:26:51.971Z,101067.55
2018-09-14T00:29:20.670Z,101062.71
2018-09-14T00:31:49.102Z,101059.20
2018-09-14T00:34:18.468Z,101062.62
2018-09-14T00:36:47.001Z,101068.77
2018-09-14T00:39:16.141Z,101067.03
2018-09-14T00:41:44.645Z,101060.94
2018-09-14T00:44:13.063Z,101060.47
2018-09-14T00:46:41.588Z,101065.77
2018-09-14T00:49:10.449Z,101066.61
2018-09-14T00:51:38.914Z,101058.73
2018-09-14T00:54:07.834Z,101061.78
2018-09-14T00:56:36.361Z,101058.27
2018-09-14T00:59:05.221Z,101062.29
2018-09-14T01:01:34.685Z,101063.56
2018-09-14T01:04:03.470Z,101056.95
2018-09-14T01:06:31.967Z,101062.98
2018-09-14T01:09:00.394Z,101060.78
2018-09-14T01:11:29.018Z,101059.84
2018-09-14T01:13:57.509Z,101058.07
2018-09-14T01:16:25.949Z,101058.95
2018-09-14T01:18:54.877Z,101063.33
2018-09-14T01:21:24.091Z,100960.23
2018-09-14T01:23:52.514Z,101055.87
2018-09-14T01:26:21.329Z,101054.52
2018-09-14T01:28:49.792Z,101051.03
2018-09-14T01:31:18.850Z,101057.27
2018-09-14T01:33:47.705Z,101042.34
2018-09-14T01:36:16.961Z,101046.33
2018-09-14T01:38:51.799Z,101048.06
2018-09-14T01:41:20.296Z,101040.19
2018-09-14T01:43:48.749Z,101042.97
2018-09-14T01:46:17.585Z,101037.20
2018-09-14T01:48:46.101Z,101045.02
2018-09-14T01:51:15.228Z,101037.48
2018-09-14T01:53:44.245Z,101042.69
2018-09-14T01:56:12.792Z,101034.34
2018-09-14T01:58:41.206Z,101033.92
2018-09-14T02:01:10.309Z,101037.44
2018-09-14T02:03:38.808Z,101034.85
2018-09-14T02:06:07.252Z,101037.91
2018-09-14T02:08:36.057Z,101036.59
2018-09-14T02:11:05.071Z,101037.91
2018-09-14T02:13:33.510Z,101039.22
2018-09-14T02:16:02.201Z,101027.23
2018-09-14T02:18:30.782Z,101029.36
2018-09-14T02:20:59.662Z,101024.98
2018-09-14T02:23:28.579Z,101026.27
2018-09-14T02:25:57.019Z,101027.07
2018-09-14T02:28:25.466Z,101022.28
2018-09-14T02:30:54.222Z,101025.84
2018-09-14T02:33:22.781Z,101020.55
2018-09-14T02:35:51.210Z,101022.23
2018-09-14T02:38:19.974Z,101013.05
2018-09-14T02:40:48.812Z,101008.22
2018-09-14T02:43:17.350Z,101006.91
2018-09-14T02:45:45.893Z,101006.91
2018-09-14T02:48:14.611Z,101016.56
2018-09-14T02:50:43.053Z,101012.20
2018-09-14T02:53:12.074Z,101020.08
2018-09-14T02:55:40.558Z,101006.91
2018-09-14T02:58:09.274Z,101010.42
2018-09-14T03:00:37.855Z,101009.49
2018-09-14T03:03:06.362Z,101013.47
2018-09-14T03:05:35.161Z,101017.38
2018-09-14T03:08:03.689Z,101019.95
2018-09-14T03:10:32.119Z,101021.31
2018-09-14T03:13:00.578Z,101016.95
2018-09-14T03:15:29.669Z,101012.08
2018-09-14T03:17:58.174Z,101013.01
2018-09-14T03:20:26.605Z,101016.56
2018-09-14T03:22:56.040Z,101011.31
2018-09-14T03:25:24.681Z,101008.77
2018-09-14T03:27:53.125Z,101012.75
2018-09-14T03:30:21.842Z,101013.72
2018-09-14T03:32:50.351Z,101010.24
2018-09-14T03:35:18.777Z,101013.25
2018-09-14T03:37:47.626Z,101008.47
2018-09-14T03:40:17.570Z,101017.70
2018-09-14T03:42:47.969Z,101014.18
2018-09-14T03:45:16.720Z,101018.55
2018-09-14T03:47:45.181Z,101014.64
2018-09-14T03:50:13.607Z,101015.61
2018-09-14T03:52:42.386Z,101013.03
2018-09-14T03:55:11.082Z,100987.67
2018-09-14T03:57:39.506Z,101022.77
2018-09-14T04:00:08.525Z,101013.99
2018-09-14T04:02:36.978Z,101004.84
2018-09-14T04:05:05.783Z,101003.88
2018-09-14T04:07:34.907Z,101008.66
2018-09-14T04:10:03.285Z,101005.19
2018-09-14T04:12:31.709Z,101003.83
2018-09-14T04:15:00.242Z,101004.37
2018-09-14T04:17:28.715Z,101012.75
2018-09-14T04:19:57.153Z,101000.47
2018-09-14T04:22:25.981Z,100997.84
2018-09-14T04:24:55.162Z,101000.01
2018-09-14T04:27:23.586Z,100996.49
2018-09-14T04:29:52.351Z,101000.51
2018-09-14T04:32:20.894Z,101000.55
2018-09-14T04:34:49.511Z,100993.13
2018-09-14T04:37:18.411Z,100992.28
2018-09-14T04:39:46.890Z,100998.46
2018-09-14T04:42:15.334Z,100995.45
2018-09-14T04:44:44.159Z,100989.37
2018-09-14T04:47:12.739Z,100998.66
2018-09-14T04:49:41.173Z,101001.28
2018-09-14T04:52:09.924Z,100992.59
2018-09-14T04:54:38.425Z,100992.51
2018-09-14T04:57:07.295Z,100990.34
2018-09-14T04:59:36.061Z,100996.95
2018-09-14T05:02:04.580Z,100997.06
2018-09-14T05:04:33.002Z,101004.95
2018-09-14T05:07:01.897Z,101001.47
2018-09-14T05:09:30.373Z,101004.60
2018-09-14T05:11:58.882Z,101005.48
2018-09-14T05:14:27.394Z,101000.23
2018-09-14T05:16:56.223Z,101005.95
2018-09-14T05:19:24.682Z,101008.12
2018-09-14T05:21:53.604Z,101004.60
2018-09-14T05:24:22.076Z,101003.75
2018-09-14T05:26:50.689Z,100994.59
2018-09-14T05:29:19.190Z,101009.51
2018-09-14T05:31:48.091Z,101006.87
2018-09-14T05:34:17.412Z,101013.48
2018-09-14T05:36:46.945Z,101009.13
2018-09-14T05:39:15.561Z,101009.58
2018-09-14T05:41:43.990Z,101017.58
2018-09-14T05:44:12.608Z,101018.55
2018-09-14T05:46:42.090Z,101015.53
2018-09-14T05:49:10.734Z,101028.44
2018-09-14T05:51:39.687Z,101012.34
2018-09-14T05:54:08.148Z,101013.77
2018-09-14T05:56:36.582Z,101005.98
2018-09-14T05:59:05.594Z,101008.25
2018-09-14T06:01:34.766Z,101009.28
2018-09-14T06:04:04.362Z,101012.97
2018-09-14T06:06:32.979Z,101009.09
2018-09-14T06:09:01.441Z,101005.25
2018-09-14T06:11:29.874Z,101005.06
2018-09-14T06:13:58.990Z,101003.02
2018-09-14T06:16:27.541Z,101002.30
2018-09-14T06:18:56.064Z,101007.16
2018-09-14T06:21:24.745Z,101010.28
2018-09-14T06:23:53.359Z,101007.74
2018-09-14T06:26:21.790Z,101008.23
2018-09-14T06:28:50.909Z,101007.65
2018-09-14T06:31:19.388Z,101007.25
2018-09-14T06:33:47.872Z,101009.95
2018-09-14T06:36:16.685Z,101004.25
2018-09-14T06:38:45.169Z,101018.40
2018-09-14T06:41:13.621Z,101011.55
2018-09-14T06:43:42.283Z,101012.68
2018-09-14T06:46:11.101Z,101015.70
2018-09-14T06:48:39.606Z,101011.77
2018-09-14T06:51:08.337Z,101010.19
2018-09-14T06:53:36.809Z,101014.77
2018-09-14T06:56:05.238Z,101019.78
2018-09-14T06:58:34.087Z,101022.59
2018-09-14T07:01:02.986Z,101014.24
2018-09-14T07:03:31.880Z,101014.76
2018-09-14T07:06:01.163Z,101018.09
2018-09-14T07:08:29.673Z,101015.49
2018-09-14T07:10:58.118Z,101029.23
2018-09-14T07:13:26.834Z,101003.70
2018-09-14T07:15:55.549Z,101004.62
2018-09-14T07:18:23.977Z,101004.97
2018-09-14T07:20:52.962Z,101019.28
2018-09-14T07:23:21.703Z,100995.41
2018-09-14T07:25:50.421Z,100988.48
2018-09-14T07:28:18.957Z,100995.72
2018-09-14T07:30:48.699Z,100994.66
2018-09-14T07:33:18.233Z,100998.89
2018-09-14T07:35:47.135Z,100991.48
2018-09-14T07:38:15.714Z,100996.89
2018-09-14T07:40:44.342Z,101000.86
2018-09-14T07:43:13.289Z,100997.81
2018-09-14T07:45:42.053Z,101003.96
2018-09-14T07:48:10.798Z,100999.95
2018-09-14T07:50:40.573Z,101006.53
2018-09-14T07:53:10.233Z,101002.02
2018-09-14T07:55:38.692Z,101005.02
2018-09-14T07:58:07.754Z,101007.19
2018-09-14T08:00:36.237Z,101018.12
2018-09-14T08:03:05.094Z,101017.55
2018-09-14T08:05:33.813Z,101019.36
2018-09-14T08:08:02.363Z,101016.63
2018-09-14T08:10:31.212Z,101015.65
2018-09-14T08:12:59.870Z,101018.23
2018-09-14T08:15:28.333Z,101023.08
2018-09-14T08:17:56.758Z,101031.34
2018-09-14T08:20:25.626Z,101025.03
2018-09-14T08:22:54.102Z,101019.79
2018-09-14T08:25:22.550Z,101024.68
2018-09-14T08:27:51.171Z,101017.17
2018-09-14T08:30:19.893Z,101016.67
2018-09-14T08:32:48.851Z,101010.97
2018-09-14T08:35:17.730Z,101018.92
2018-09-14T08:37:46.193Z,101034.73
2018-09-14T08:40:14.937Z,101020.55
2018-09-14T08:42:43.490Z,101023.65
2018-09-14T08:45:11.983Z,101021.94
2018-09-14T08:47:40.885Z,101021.46
2018-09-14T08:50:09.937Z,101021.94
2018-09-14T08:52:38.393Z,101030.33
2018-09-14T08:55:07.002Z,101020.08
2018-09-14T08:57:35.857Z,101024.86
2018-09-14T09:00:04.416Z,101016.55
2018-09-14T09:02:32.842Z,101012.70
2018-09-14T09:05:01.918Z,101019.44
2018-09-14T09:07:30.518Z,101019.09
2018-09-14T09:09:59.165Z,101013.30
2018-09-14T09:12:28.105Z,101008.42
2018-09-14T09:14:56.601Z,101011.58
2018-09-14T09:17:25.057Z,101022.72
2018-09-14T09:19:54.147Z,101012.33
2018-09-14T09:22:23.250Z,100995.70
2018-09-14T09:24:51.680Z,101015.81
2018-09-14T09:27:20.738Z,101016.30
2018-09-14T09:29:50.065Z,101004.94
2018-09-14T09:32:18.559Z,101009.83
2018-09-14T09:34:49.306Z,101002.23
2018-09-14T09:37:17.828Z,101001.36
2018-09-14T09:39:46.290Z,101005.86
2018-09-14T09:42:15.028Z,101001.09
2018-09-14T09:44:43.469Z,101004.88
2018-09-14T09:47:12.194Z,101001.45
2018-09-14T09:49:41.105Z,100998.46
2018-09-14T09:52:09.565Z,100991.06
2018-09-14T09:54:37.999Z,100992.47
2018-09-14T09:57:07.250Z,100989.44
2018-09-14T09:59:36.688Z,100994.34
2018-09-14T10:02:11.202Z,100991.23
2018-09-14T10:05:42.073Z,100996.56
2018-09-14T10:08:10.558Z,100985.60
2018-09-14T10:10:39.353Z,100992.34
2018-09-14T10:13:07.774Z,100973.33
2018-09-14T10:15:36.629Z,100981.75
2018-09-14T10:18:05.432Z,100983.95
2018-09-14T10:20:34.138Z,100982.14
2018-09-14T10:23:02.566Z,100968.42
2018-09-14T10:25:31.463Z,100976.78
2018-09-14T10:28:00.309Z,100978.61
2018-09-14T10:30:28.782Z,100976.39
2018-09-14T10:32:57.617Z,100981.30
2018-09-14T10:35:26.659Z,100980.41
2018-09-14T10:37:55.099Z,100981.30
2018-09-14T10:40:23.898Z,100990.59
2018-09-14T10:42:53.802Z,100977.76
2018-09-14T10:45:22.407Z,100981.69
2018-09-14T10:47:50.936Z,100995.88
2018-09-14T10:50:19.401Z,100999.87
2018-09-14T10:52:49.349Z,100987.94
2018-09-14T10:55:18.818Z,100983.89
2018-09-14T10:57:47.205Z,100994.95
2018-09-14T11:00:15.942Z,100997.11
2018-09-14T11:02:45.398Z,100990.27
2018-09-14T11:05:15.626Z,100985.42
2018-09-14T11:07:44.198Z,100977.81
2018-09-14T11:10:13.826Z,100985.84
2018-09-14T11:12:42.432Z,100974.41
2018-09-14T11:15:10.917Z,100975.80
2018-09-14T11:17:40.905Z,100985.00
2018-09-14T11:20:09.770Z,100968.99
2018-09-14T11:22:38.189Z,100967.29
2018-09-14T11:25:07.052Z,100970.03
2018-09-14T11:27:36.774Z,100961.16
2018-09-14T11:30:06.590Z,100962.87
2018-09-14T11:32:35.493Z,100961.27
2018-09-14T11:35:04.019Z,100951.02
2018-09-14T11:37:32.810Z,100969.86
2018-09-14T11:40:01.737Z,100953.98
2018-09-14T11:42:30.993Z,100954.88
2018-09-14T11:44:59.700Z,100947.77
2018-09-14T11:47:28.525Z,100948.23
2018-09-14T11:49:57.142Z,100950.42
2018-09-14T11:52:25.993Z,100953.64
2018-09-14T11:54:55.091Z,100951.55
2018-09-14T11:57:23.746Z,100953.77
2018-09-14T11:59:52.161Z,100952.88
2018-09-14T12:02:24.061Z,100956.44
2018-09-14T12:04:53.893Z,100943.65
2018-09-14T12:07:22.630Z,100948.52
2018-09-14T12:09:51.148Z,100955.20
2018-09-14T12:12:20.397Z,100943.64
2018-09-14T12:14:49.004Z,100938.19
2018-09-14T12:17:17.553Z,100934.33
2018-09-14T12:19:46.262Z,100948.03
2018-09-14T12:22:15.077Z,100933.14
2018-09-14T12:24:43.696Z,100930.66
2018-09-14T12:27:12.126Z,100935.42
2018-09-14T12:29:41.198Z,100928.44
2018-09-14T12:32:09.677Z,100927.05
2018-09-14T12:34:38.308Z,100939.62
2018-09-14T12:37:06.843Z,100939.83
2018-09-14T12:39:35.480Z,100926.77
2018-09-14T12:42:04.181Z,100933.14
2018-09-14T12:44:33.185Z,100945.13
2018-09-14T12:47:01.629Z,100940.99
2018-09-14T12:49:30.371Z,100943.16
2018-09-14T12:51:58.989Z,100933.86
2018-09-14T12:54:28.045Z,100949.73
2018-09-14T12:56:56.905Z,100931.73
2018-09-14T12:59:25.643Z,100936.64
2018-09-14T13:01:54.197Z,100937.63
2018-09-14T13:04:22.701Z,100928.08
2018-09-14T13:06:51.644Z,100960.96
2018-09-14T13:09:20.233Z,100955.83
2018-09-14T13:11:49.434Z,100948.56
2018-09-14T13:14:21.025Z,100951.21
2018-09-14T13:16:50.233Z,100964.45
2018-09-14T13:19:19.207Z,100956.98
2018-09-14T13:21:48.245Z,100956.09
2018-09-14T13:24:16.698Z,100966.63
2018-09-14T13:26:45.196Z,100962.67
2018-09-14T13:29:13.702Z,100954.58
2018-09-14T13:31:42.131Z,100959.14
2018-09-14T13:34:10.927Z,100958.69
2018-09-14T13:36:39.377Z,100972.95
2018-09-14T13:39:08.917Z,100970.16
2018-09-14T13:41:37.603Z,100950.69
2018-09-14T13:44:06.385Z,100954.34
2018-09-14T13:46:35.333Z,100951.28
2018-09-14T13:49:03.948Z,100961.59
2018-09-14T13:51:32.443Z,100951.66
2018-09-14T13:54:07.774Z,100960.41
2018-09-14T13:56:36.269Z,100945.59
2018-09-14T13:59:04.782Z,100942.34
2018-09-14T14:01:33.901Z,100952.32
2018-09-14T14:04:02.381Z,100938.94
2018-09-14T14:06:30.813Z,100949.99
2018-09-14T14:08:59.575Z,100941.23
2018-09-14T14:11:28.048Z,100948.53
2018-09-14T14:13:56.527Z,100938.30
2018-09-14T14:16:25.675Z,100940.42
2018-09-14T14:18:54.145Z,100939.25
2018-09-14T14:21:22.557Z,100945.70
2018-09-14T14:23:51.163Z,100967.89
2018-09-14T14:26:19.602Z,100952.46
2018-09-14T14:28:48.940Z,100956.62
2018-09-14T14:31:17.758Z,100960.64
2018-09-14T14:33:46.238Z,100952.41
2018-09-14T14:36:14.662Z,100959.02
2018-09-14T14:38:43.594Z,100973.02
2018-09-14T14:41:13.378Z,100965.38
2018-09-14T14:43:43.823Z,100973.55
2018-09-14T14:46:12.391Z,100976.71
2018-09-14T14:48:40.822Z,100976.84
2018-09-14T14:51:09.293Z,100972.72
2018-09-14T14:53:40.493Z,100977.20
2018-09-14T14:56:11.857Z,100969.28
2018-09-14T14:58:43.053Z,100973.72
2018-09-14T15:01:12.825Z,100983.02
2018-09-14T15:03:43.055Z,100976.83
2018-09-14T15:06:15.345Z,100990.09
2018-09-14T15:08:46.054Z,100977.27
2018-09-14T15:11:16.930Z,100980.42
2018-09-14T15:13:47.789Z,100982.63
2018-09-14T15:16:18.033Z,100979.53
2018-09-14T15:18:49.255Z,100980.80
2018-09-14T15:21:19.123Z,100975.45
2018-09-14T15:23:53.490Z,100978.06
2018-09-14T15:26:22.394Z,100992.62
2018-09-14T15:28:50.818Z,100979.34
2018-09-14T15:31:19.251Z,100988.59
2018-09-14T15:33:48.368Z,100989.87
2018-09-14T15:36:16.903Z,100991.61
2018-09-14T15:38:45.338Z,100986.75
2018-09-14T15:41:14.425Z,101002.64
2018-09-14T15:43:43.115Z,100985.39
2018-09-14T15:46:11.528Z,100988.48
2018-09-14T15:48:40.226Z,100991.59
2018-09-14T15:51:09.040Z,100992.46
2018-09-14T15:53:37.738Z,100984.09
2018-09-14T15:56:06.335Z,100985.87
2018-09-14T15:58:35.226Z,100994.25
2018-09-14T16:01:03.682Z,100988.97
2018-09-14T16:03:32.330Z,100950.07
2018-09-14T16:06:01.281Z,100996.47
2018-09-14T16:08:29.705Z,100989.37
2018-09-14T16:10:58.223Z,100988.91
2018-09-14T16:13:26.700Z,100993.29
2018-09-14T16:15:55.121Z,100995.02
2018-09-14T16:18:23.621Z,100994.06
2018-09-14T16:20:52.117Z,100990.03
2018-09-14T16:23:20.546Z,100990.89
2018-09-14T16:25:49.205Z,100986.45
2018-09-14T16:28:18.429Z,100987.73
2018-09-14T16:30:46.842Z,100984.19
2018-09-14T16:33:15.574Z,100985.05
2018-09-14T16:35:44.034Z,100985.45
2018-09-14T16:38:12.498Z,100980.98
2018-09-14T16:40:41.112Z,100976.95
2018-09-14T16:43:09.566Z,100982.20
2018-09-14T16:45:38.402Z,100983.08
2018-09-14T16:48:07.229Z,100989.66
2018-09-14T16:50:35.895Z,100992.70
2018-09-14T16:53:04.334Z,100982.09
2018-09-14T16:55:39.607Z,100977.69
2018-09-14T16:58:08.055Z,100985.58
2018-09-14T17:00:36.534Z,100986.02
2018-09-14T17:03:05.301Z,100982.02
2018-09-14T17:05:33.733Z,100974.94
2018-09-14T17:08:02.202Z,100979.75
2018-09-14T17:10:31.151Z,100983.25
2018-09-14T17:12:59.606Z,100982.33
2018-09-14T17:15:28.059Z,100985.83
2018-09-14T17:17:56.643Z,100981.42
2018-09-14T17:20:25.097Z,100982.72
2018-09-14T17:22:53.529Z,100982.71
2018-09-14T17:25:22.075Z,100981.31
2018-09-14T17:27:50.530Z,100977.75
2018-09-14T17:30:18.992Z,100982.14
2018-09-14T17:32:48.159Z,100982.14
2018-09-14T17:35:16.825Z,100988.26
2018-09-14T17:37:45.274Z,100984.73
2018-09-14T17:40:13.880Z,100990.00
2018-09-14T17:42:42.321Z,100980.72
2018-09-14T17:45:10.800Z,100980.69
2018-09-14T17:47:39.506Z,100982.86
2018-09-14T17:50:08.061Z,100984.18
2018-09-14T17:52:36.539Z,100978.00
2018-09-14T17:55:05.154Z,100978.41
2018-09-14T17:57:34.011Z,100983.68
2018-09-14T18:00:02.534Z,100979.72
2018-09-14T18:02:31.106Z,100978.34
2018-09-14T18:04:59.731Z,100979.63
2018-09-14T18:07:28.174Z,100975.16
2018-09-14T18:09:56.729Z,100977.38
2018-09-14T18:12:25.174Z,100982.20
2018-09-14T18:14:53.732Z,100986.14
2018-09-14T18:17:22.229Z,100983.94
2018-09-14T18:19:50.675Z,100985.23
2018-09-14T18:22:19.134Z,100979.92
2018-09-14T18:24:47.769Z,100979.03
2018-09-14T18:27:16.213Z,100984.73
2018-09-14T18:29:45.045Z,100986.05
2018-09-14T18:32:13.733Z,100987.79
2018-09-14T18:34:42.176Z,100989.52
2018-09-14T18:37:10.602Z,100989.98
2018-09-14T18:39:39.177Z,100999.22
2018-09-14T18:42:07.621Z,100987.31
2018-09-14T18:44:36.074Z,100990.86
2018-09-14T18:47:05.017Z,100992.18
2018-09-14T18:49:33.729Z,100989.09
2018-09-14T18:52:02.237Z,100983.35
2018-09-14T18:54:31.563Z,100988.20
2018-09-14T18:57:00.057Z,100993.48
2018-09-14T18:59:28.502Z,100987.31
2018-09-14T19:01:57.083Z,100989.95
2018-09-14T19:04:25.709Z,100979.39
2018-09-14T19:06:54.230Z,100980.24
2018-09-14T19:09:23.037Z,100986.83
2018-09-14T19:11:51.474Z,100982.41
2018-09-14T19:14:20.217Z,100978.02
2018-09-14T19:16:48.870Z,100973.17
2018-09-14T19:19:18.029Z,100982.86
2018-09-14T19:21:46.653Z,100981.07
2018-09-14T19:24:15.618Z,100980.19
2018-09-14T19:26:44.061Z,100977.55
2018-09-14T19:29:12.506Z,100981.94
2018-09-14T19:31:41.417Z,100978.41
2018-09-14T19:34:09.915Z,100981.48
2018-09-14T19:36:38.434Z,100980.15
2018-09-14T19:39:10.046Z,100977.51
2018-09-14T19:41:38.529Z,100973.11
2018-09-14T19:44:07.107Z,100977.53
2018-09-14T19:46:35.812Z,100974.43
2018-09-14T19:49:04.282Z,100974.87
2018-09-14T19:51:32.891Z,100964.72
2018-09-14T19:54:01.481Z,100964.73
2018-09-14T19:56:29.905Z,100966.95
2018-09-14T19:58:58.357Z,100965.17
2018-09-14T20:01:27.130Z,100962.55
2018-09-14T20:03:55.569Z,100967.40
2018-09-14T20:06:24.042Z,100962.98
2018-09-14T20:08:53.309Z,100965.63
2018-09-14T20:11:22.012Z,100962.55
2018-09-14T20:13:50.476Z,100959.89
2018-09-14T20:16:19.405Z,100963.42
2018-09-14T20:18:48.066Z,100965.17
2018-09-14T20:21:16.802Z,100966.47
2018-09-14T20:23:45.582Z,100963.38
2018-09-14T20:26:14.018Z,100967.36
2018-09-14T20:28:42.462Z,100970.00
2018-09-14T20:31:11.025Z,100968.27
2018-09-14T20:33:39.550Z,100973.11
2018-09-14T20:36:08.031Z,100960.78
2018-09-14T20:38:36.776Z,100960.81
2018-09-14T20:41:05.241Z,100959.06
2018-09-14T20:43:33.825Z,100950.27
2018-09-14T20:46:02.395Z,100943.67
2018-09-14T20:48:30.822Z,100947.19
2018-09-14T20:50:59.307Z,100944.55
2018-09-14T20:53:30.023Z,100938.81
2018-09-14T20:55:58.460Z,100945.41
2018-09-14T20:58:27.108Z,100942.31
2018-09-14T21:00:56.649Z,100937.02
2018-09-14T21:03:25.102Z,100934.38
2018-09-14T21:05:53.980Z,100937.00
2018-09-14T21:08:22.538Z,100940.11
2018-09-14T21:10:51.374Z,100932.19
2018-09-14T21:13:19.857Z,100926.88
2018-09-14T21:15:49.225Z,100931.72
2018-09-14T21:18:17.742Z,100932.61
2018-09-14T21:20:46.281Z,100937.91
2018-09-14T21:23:15.174Z,100928.63
2018-09-14T21:25:43.638Z,100926.84
2018-09-14T21:28:12.073Z,100926.36
2018-09-14T21:30:40.917Z,100921.08
2018-09-14T21:33:09.358Z,100920.18
2018-09-14T21:35:37.799Z,100921.05
2018-09-14T21:38:06.684Z,100919.31
2018-09-14T21:40:35.145Z,100916.67
2018-09-14T21:43:03.626Z,100924.63
2018-09-14T21:45:32.433Z,100913.62
2018-09-14T21:48:00.888Z,100909.22
2018-09-14T21:50:29.371Z,100915.39
2018-09-14T21:52:57.887Z,100913.19
2018-09-14T21:55:26.669Z,100904.34
2018-09-14T21:57:55.120Z,100919.28
2018-09-14T22:00:28.757Z,100913.51
2018-09-14T22:02:57.566Z,100915.66
2018-09-14T22:05:26.024Z,100916.05
2018-09-14T22:07:54.513Z,100905.91
2018-09-14T22:10:23.233Z,100912.08
2018-09-14T22:12:53.214Z,100913.83
2018-09-14T22:15:21.856Z,100914.70
2018-09-14T22:17:50.658Z,100908.94
2018-09-14T22:20:19.089Z,100901.45
2018-09-14T22:22:47.725Z,100905.85
2018-09-14T22:25:16.770Z,100906.30
2018-09-14T22:27:45.215Z,100908.48
2018-09-14T22:30:13.693Z,100898.82
2018-09-14T22:32:42.690Z,100895.77
2018-09-14T22:35:11.285Z,100893.11
2018-09-14T22:37:39.701Z,100894.02
2018-09-14T22:40:08.213Z,100890.05
2018-09-14T22:42:36.669Z,100892.28
2018-09-14T22:45:05.462Z,100900.20
2018-09-14T22:47:33.985Z,100893.16
2018-09-14T22:50:02.477Z,100893.64
2018-09-14T22:52:30.927Z,100886.16
2018-09-14T22:54:59.690Z,100876.47
2018-09-14T22:57:28.268Z,100868.53
2018-09-14T22:59:56.745Z,100876.90
2018-09-14T23:02:25.670Z,100870.73
2018-09-14T23:04:54.134Z,100869.41
2018-09-14T23:07:22.625Z,100863.27
2018-09-14T23:09:51.149Z,100869.88
2018-09-14T23:12:19.597Z,100863.73
2018-09-14T23:14:49.316Z,100852.28
2018-09-14T23:17:18.660Z,100854.05
2018-09-14T23:19:47.163Z,100858.48
2018-09-14T23:22:15.639Z,100865.06
2018-09-14T23:24:45.141Z,100856.69
2018-09-14T23:27:13.571Z,100852.28
2018-09-14T23:29:42.114Z,100847.00
2018-09-14T23:32:10.768Z,100839.50
2018-09-14T23:34:39.185Z,100832.90
2018-09-14T23:37:07.652Z,100839.95
2018-09-14T23:39:36.506Z,100845.66
2018-09-14T23:42:04.989Z,100839.06
2018-09-14T23:44:33.473Z,100846.53
2018-09-14T23:47:02.306Z,100847.44
2018-09-14T23:49:30.744Z,100840.81
2018-09-14T23:51:59.249Z,100838.18
2018-09-14T23:54:27.771Z,100840.81
2018-09-14T23:56:56.290Z,100835.09
2018-09-14T23:59:24.914Z,100839.91
